Main page
METAR-TAF:

METAR-TAF

Airports :

Piacenza Air Base

Piacenza, Italy

latitude: 44-55N, longitude: 009-44E, elevation: 134 m

Current weather observation

The report was made 30 minutes ago, at 14:55 UTC
Wind 4 kt from the East/Southeast
Temperature 17°C
Humidity 27%
Pressure 1012 hPa
Visibility: 8000 m

METAR: LIMS 281455Z 12004KT 8000 NSC 17/M02 Q1012 RMK SKC VIS MIN 8000 WIND THR30 09005KT BLU

Time: 16:25 (15:25 UTC)


TAF: missing

Weather observations and forecasts of more than 4000 airports (METAR and TAF reports).

The available stations are represented by yellow and red dots on the map.

Hover mouse over dot to see the name of the station.

Then click to see weather observations and forecasts.

To change the map : click on the green buttons with a black cross to zoom in, on the green button with a dash to zoom out, or on the green arrows for adjacent maps.


METAR-TAF: